createdAt,value
2022-08-19T00:02:09.972Z,14.85
2022-08-19T00:04:37.717Z,13.70
2022-08-19T00:07:07.404Z,15.40
2022-08-19T00:09:34.559Z,16.70
2022-08-19T00:12:02.567Z,16.92
2022-08-19T00:14:33.613Z,17.95
2022-08-19T00:17:01.320Z,16.25
2022-08-19T00:19:29.143Z,18.05
2022-08-19T00:21:57.361Z,17.08
2022-08-19T00:24:24.905Z,16.65
2022-08-19T00:26:53.266Z,16.75
2022-08-19T00:29:25.800Z,16.15
2022-08-19T00:31:58.912Z,16.25
2022-08-19T00:34:29.766Z,18.83
2022-08-19T00:36:58.164Z,16.40
2022-08-19T00:39:25.335Z,17.13
2022-08-19T00:41:52.916Z,18.17
2022-08-19T00:44:27.372Z,17.65
2022-08-19T00:46:59.880Z,16.77
2022-08-19T00:49:43.628Z,16.15
2022-08-19T00:52:20.698Z,16.27
2022-08-19T00:54:52.675Z,16.45
2022-08-19T00:57:30.150Z,16.02
2022-08-19T01:00:02.924Z,16.90
2022-08-19T01:02:33.180Z,17.42
2022-08-19T01:05:05.126Z,17.23
2022-08-19T01:07:35.839Z,19.67
2022-08-19T01:10:11.646Z,18.90
2022-08-19T01:12:40.567Z,19.83
2022-08-19T01:15:12.810Z,20.25
2022-08-19T01:17:41.896Z,20.42
2022-08-19T01:20:16.403Z,20.63
2022-08-19T01:22:55.744Z,20.85
2022-08-19T01:25:30.407Z,19.33
2022-08-19T01:28:06.413Z,18.80
2022-08-19T01:30:38.891Z,20.38
2022-08-19T01:33:06.606Z,20.90
2022-08-19T01:35:36.511Z,18.85
2022-08-19T01:38:08.632Z,20.30
2022-08-19T01:40:40.891Z,21.42
2022-08-19T01:43:08.760Z,18.25
2022-08-19T01:45:37.156Z,20.73
2022-08-19T01:48:04.990Z,21.90
2022-08-19T01:50:35.708Z,20.88
2022-08-19T01:53:08.847Z,21.58
2022-08-19T01:55:41.650Z,25.20
2022-08-19T01:58:23.673Z,21.67
2022-08-19T02:00:51.667Z,21.48
2022-08-19T02:03:18.894Z,20.02
2022-08-19T02:05:46.691Z,20.40
2022-08-19T02:08:14.023Z,19.67
2022-08-19T02:10:44.554Z,22.48
2022-08-19T02:13:14.352Z,20.45
2022-08-19T02:15:41.915Z,19.85
2022-08-19T02:18:09.391Z,21.50
2022-08-19T02:20:39.460Z,20.38
2022-08-19T02:23:13.471Z,21.00
2022-08-19T02:25:46.532Z,18.83
2022-08-19T02:28:17.915Z,19.85
2022-08-19T02:30:47.599Z,20.00
2022-08-19T02:33:16.103Z,19.33
2022-08-19T02:35:47.896Z,19.58
2022-08-19T02:38:27.774Z,19.70
2022-08-19T02:41:02.038Z,21.63
2022-08-19T02:46:03.279Z,20.27
2022-08-19T02:48:31.572Z,20.38
2022-08-19T02:50:58.677Z,23.65
2022-08-19T02:53:28.826Z,21.13
2022-08-19T02:55:56.476Z,22.17
2022-08-19T02:58:25.336Z,22.88
2022-08-19T03:00:56.571Z,29.67
2022-08-19T03:03:24.455Z,32.72
2022-08-19T03:05:56.858Z,34.97
2022-08-19T03:08:26.530Z,34.70
2022-08-19T03:10:54.263Z,33.15
2022-08-19T03:13:21.743Z,35.92
2022-08-19T03:15:49.486Z,40.65
2022-08-19T03:18:18.364Z,34.97
2022-08-19T03:20:50.099Z,39.08
2022-08-19T03:23:18.124Z,36.78
2022-08-19T03:26:03.018Z,38.65
2022-08-19T03:28:38.624Z,33.60
2022-08-19T03:31:13.554Z,37.38
2022-08-19T03:34:00.773Z,35.80
2022-08-19T03:36:28.551Z,43.15
2022-08-19T03:39:01.321Z,41.80
2022-08-19T03:41:44.354Z,39.58
2022-08-19T03:44:23.072Z,42.65
2022-08-19T03:46:56.325Z,34.03
2022-08-19T03:49:28.389Z,41.83
2022-08-19T03:52:00.280Z,42.60
2022-08-19T03:54:28.674Z,42.72
2022-08-19T03:56:58.436Z,39.88
2022-08-19T03:59:33.703Z,42.30
2022-08-19T04:02:09.906Z,46.50
2022-08-19T04:04:41.071Z,38.13
2022-08-19T04:07:10.560Z,41.67
2022-08-19T04:09:38.520Z,42.47
2022-08-19T04:12:07.940Z,38.40
2022-08-19T04:14:35.726Z,41.95
2022-08-19T04:17:05.870Z,45.55
2022-08-19T04:19:36.670Z,42.38
2022-08-19T04:22:05.238Z,42.38
2022-08-19T04:24:33.354Z,44.42
2022-08-19T04:27:03.651Z,46.08
2022-08-19T04:29:31.298Z,44.97
2022-08-19T04:32:00.380Z,48.85
2022-08-19T04:35:01.399Z,53.70
2022-08-19T04:37:29.441Z,55.65
2022-08-19T04:40:21.261Z,51.75
2022-08-19T04:42:48.371Z,51.22
2022-08-19T04:45:17.554Z,49.40
2022-08-19T04:47:48.347Z,48.72
2022-08-19T04:50:28.631Z,49.03
2022-08-19T04:52:56.633Z,43.15
2022-08-19T04:55:26.369Z,54.72
2022-08-19T04:57:55.059Z,54.65
2022-08-19T05:00:22.620Z,63.38
2022-08-19T05:02:50.264Z,50.83
2022-08-19T05:05:18.214Z,55.38
2022-08-19T05:07:45.373Z,56.70
2022-08-19T05:10:13.715Z,64.43
2022-08-19T05:12:40.915Z,53.33
2022-08-19T05:15:09.718Z,51.47
2022-08-19T05:17:38.875Z,53.55
2022-08-19T05:20:27.209Z,61.88
2022-08-19T05:22:54.546Z,49.28
2022-08-19T05:25:22.946Z,50.47
2022-08-19T05:27:50.434Z,47.22
2022-08-19T05:30:18.534Z,50.28
2022-08-19T05:32:45.893Z,49.05
2022-08-19T05:35:13.212Z,45.60
2022-08-19T05:37:41.673Z,39.40
2022-08-19T05:40:10.958Z,41.50
2022-08-19T05:42:38.784Z,36.95
2022-08-19T05:45:07.107Z,36.08
2022-08-19T05:47:34.158Z,41.30
2022-08-19T05:50:04.931Z,38.65
2022-08-19T05:52:32.577Z,38.50
2022-08-19T05:55:00.758Z,36.92
2022-08-19T05:57:29.873Z,34.45
2022-08-19T05:59:59.203Z,33.33
2022-08-19T06:02:28.936Z,41.40
2022-08-19T06:04:56.292Z,38.97
2022-08-19T06:07:23.958Z,40.05
2022-08-19T06:10:00.386Z,49.53
2022-08-19T06:12:33.821Z,39.65
2022-08-19T06:15:14.362Z,39.33
2022-08-19T06:17:45.225Z,40.80
2022-08-19T06:20:15.832Z,38.83
2022-08-19T06:22:52.662Z,49.65
2022-08-19T06:25:19.898Z,51.42
2022-08-19T06:28:11.917Z,53.63
2022-08-19T06:30:34.527Z,55.28
2022-08-19T06:33:01.775Z,51.45
2022-08-19T06:35:30.435Z,58.20
2022-08-19T06:37:57.763Z,54.83
2022-08-19T06:40:25.142Z,55.40
2022-08-19T06:42:54.794Z,55.42
2022-08-19T06:45:24.629Z,62.30
2022-08-19T06:47:55.263Z,54.13
2022-08-19T06:50:25.964Z,59.53
2022-08-19T06:52:53.522Z,53.50
2022-08-19T06:55:22.075Z,52.15
2022-08-19T06:57:49.412Z,60.90
2022-08-19T07:00:16.958Z,67.20
2022-08-19T07:02:49.585Z,54.28
2022-08-19T07:05:23.330Z,54.90
2022-08-19T07:07:50.971Z,60.42
2022-08-19T07:10:19.368Z,52.88
2022-08-19T07:12:46.431Z,53.85
2022-08-19T07:15:13.990Z,47.88
2022-08-19T07:17:42.241Z,49.25
2022-08-19T07:20:12.028Z,45.15
2022-08-19T07:22:40.556Z,47.17
2022-08-19T07:25:10.373Z,50.20
2022-08-19T07:27:38.182Z,47.63
2022-08-19T07:30:12.148Z,46.85
2022-08-19T07:32:41.080Z,49.70
2022-08-19T07:35:10.263Z,46.20
2022-08-19T07:37:38.096Z,43.90
2022-08-19T07:40:08.670Z,46.95
2022-08-19T07:42:35.876Z,43.05
2022-08-19T07:45:07.091Z,45.20
2022-08-19T07:47:47.687Z,43.03
2022-08-19T07:50:20.752Z,46.50
2022-08-19T07:52:50.756Z,45.38
2022-08-19T07:55:42.683Z,43.90
2022-08-19T07:58:14.960Z,43.40
2022-08-19T08:00:43.705Z,40.90
2022-08-19T08:03:12.430Z,38.08
2022-08-19T08:05:58.243Z,39.75
2022-08-19T08:08:47.998Z,46.45
2022-08-19T08:11:20.501Z,48.17
2022-08-19T08:14:01.186Z,35.60
2022-08-19T08:16:39.771Z,45.83
2022-08-19T08:19:20.563Z,38.72
2022-08-19T08:21:56.186Z,36.25
2022-08-19T08:24:28.297Z,33.72
2022-08-19T08:26:57.789Z,36.17
2022-08-19T08:29:34.807Z,43.47
2022-08-19T08:32:04.446Z,37.47
2022-08-19T08:34:41.484Z,33.33
2022-08-19T08:37:08.839Z,35.67
2022-08-19T08:39:36.049Z,31.08
2022-08-19T08:42:18.418Z,34.95
2022-08-19T08:44:59.152Z,34.25
2022-08-19T08:47:35.712Z,35.47
2022-08-19T08:50:15.486Z,35.03
2022-08-19T08:52:52.164Z,34.63
2022-08-19T08:55:37.128Z,34.97
2022-08-19T08:58:25.295Z,33.47
2022-08-19T09:00:52.355Z,29.75
2022-08-19T09:03:25.573Z,28.65
2022-08-19T09:06:21.315Z,27.20
2022-08-19T09:09:11.850Z,37.78
2022-08-19T09:12:19.136Z,23.63
2022-08-19T09:15:09.093Z,23.67
2022-08-19T09:17:39.310Z,26.08
2022-08-19T09:20:20.671Z,30.50
2022-08-19T09:22:50.061Z,22.88
2022-08-19T09:25:29.480Z,23.27
2022-08-19T09:28:02.980Z,27.60
2022-08-19T09:30:42.141Z,22.13
2022-08-19T09:33:09.738Z,18.40
2022-08-19T09:35:49.504Z,19.65
2022-08-19T09:38:22.193Z,20.92
2022-08-19T09:40:50.430Z,14.52
2022-08-19T09:43:33.197Z,18.42
2022-08-19T09:46:02.799Z,17.35
2022-08-19T09:48:30.089Z,18.85
2022-08-19T09:51:09.018Z,14.60
2022-08-19T09:53:40.094Z,13.63
2022-08-19T09:56:08.327Z,13.88
2022-08-19T09:58:38.195Z,13.60
2022-08-19T10:01:07.489Z,14.07
2022-08-19T10:03:37.433Z,16.90
2022-08-19T10:06:14.931Z,17.90
2022-08-19T10:08:50.215Z,21.17
2022-08-19T10:11:27.802Z,27.15
2022-08-19T10:14:03.863Z,19.63
2022-08-19T10:16:31.492Z,21.25
2022-08-19T10:19:06.834Z,25.20
2022-08-19T10:21:35.325Z,25.30
2022-08-19T10:24:06.656Z,26.65
2022-08-19T10:26:38.682Z,28.17
2022-08-19T10:29:09.475Z,34.65
2022-08-19T10:32:00.803Z,26.67
2022-08-19T10:34:27.947Z,31.30
2022-08-19T10:37:01.164Z,30.63
2022-08-19T10:39:32.704Z,26.35
2022-08-19T10:42:11.530Z,30.27
2022-08-19T10:44:38.855Z,32.08
2022-08-19T10:47:17.476Z,29.20
2022-08-19T10:50:11.804Z,28.02
2022-08-19T10:52:50.396Z,24.75
2022-08-19T10:55:44.151Z,23.88
2022-08-19T10:58:18.635Z,32.10
2022-08-19T11:00:59.779Z,26.77
2022-08-19T11:03:31.570Z,25.67
2022-08-19T11:06:05.452Z,22.75
2022-08-19T11:08:35.331Z,19.63
2022-08-19T11:11:04.270Z,22.42
2022-08-19T11:13:34.953Z,22.20
2022-08-19T11:16:10.499Z,24.20
2022-08-19T11:18:43.654Z,24.83
2022-08-19T11:21:17.829Z,23.17
2022-08-19T11:23:46.731Z,22.33
2022-08-19T11:26:16.496Z,22.15
2022-08-19T11:28:44.219Z,29.63
2022-08-19T11:31:17.568Z,21.85
2022-08-19T11:33:47.873Z,22.27
2022-08-19T11:36:16.969Z,20.58
2022-08-19T11:38:46.271Z,26.67
2022-08-19T11:41:13.325Z,20.13
2022-08-19T11:43:40.877Z,21.02
2022-08-19T11:46:12.709Z,20.13
2022-08-19T11:48:40.737Z,25.75
2022-08-19T11:51:16.071Z,18.95
2022-08-19T11:53:43.538Z,21.63
2022-08-19T11:56:11.844Z,22.70
2022-08-19T11:58:40.119Z,22.17
2022-08-19T12:01:12.052Z,20.75
2022-08-19T12:03:40.397Z,24.20
2022-08-19T12:06:13.548Z,59.13
2022-08-19T12:08:43.223Z,25.25
2022-08-19T12:11:12.411Z,26.90
2022-08-19T12:13:40.716Z,33.28
2022-08-19T12:16:15.096Z,26.17
2022-08-19T12:18:51.809Z,24.75
2022-08-19T12:21:29.524Z,22.90
2022-08-19T12:23:59.508Z,18.38
2022-08-19T12:26:29.683Z,17.52
2022-08-19T12:28:56.820Z,20.75
2022-08-19T12:31:23.912Z,23.55
2022-08-19T12:33:52.819Z,22.45
2022-08-19T12:36:20.339Z,21.02
2022-08-19T12:38:47.757Z,19.42
2022-08-19T12:41:19.223Z,17.80
2022-08-19T12:43:46.972Z,26.88
2022-08-19T12:46:15.156Z,19.98
2022-08-19T12:48:45.936Z,22.17
2022-08-19T12:51:18.718Z,18.77
2022-08-19T12:53:46.869Z,23.00
2022-08-19T12:56:15.747Z,21.70
2022-08-19T12:58:49.006Z,20.33
2022-08-19T13:01:22.655Z,20.27
2022-08-19T13:03:51.118Z,23.27
2022-08-19T13:06:19.425Z,32.42
2022-08-19T13:08:48.183Z,51.08
2022-08-19T13:11:19.330Z,22.23
2022-08-19T13:13:49.711Z,23.17
2022-08-19T13:16:17.128Z,24.95
2022-08-19T13:18:52.754Z,21.83
2022-08-19T13:21:23.911Z,20.35
2022-08-19T13:23:52.510Z,18.67
2022-08-19T13:26:20.126Z,22.50
2022-08-19T13:29:05.590Z,21.30
2022-08-19T13:31:54.964Z,20.42
2022-08-19T13:34:33.708Z,18.88
2022-08-19T13:37:04.002Z,22.42
2022-08-19T13:39:33.773Z,20.95
2022-08-19T13:42:01.667Z,21.15
2022-08-19T13:44:32.556Z,23.98
2022-08-19T13:47:08.096Z,21.30
2022-08-19T13:49:37.355Z,18.20
2022-08-19T13:52:06.632Z,19.58
2022-08-19T13:54:34.049Z,18.45
2022-08-19T13:57:01.146Z,19.92
2022-08-19T13:59:28.238Z,19.83
2022-08-19T14:02:00.979Z,15.77
2022-08-19T14:04:28.587Z,28.73
2022-08-19T14:06:56.031Z,22.77
2022-08-19T14:09:23.314Z,19.92
2022-08-19T14:11:51.788Z,15.73
2022-08-19T14:14:18.888Z,17.05
2022-08-19T14:16:45.903Z,20.15
2022-08-19T14:19:12.970Z,15.32
2022-08-19T14:21:41.967Z,16.60
2022-08-19T14:24:09.681Z,18.25
2022-08-19T14:26:36.686Z,20.10
2022-08-19T14:29:03.916Z,18.85
2022-08-19T14:31:31.118Z,19.02
2022-08-19T14:33:58.262Z,19.65
2022-08-19T14:36:25.388Z,18.45
2022-08-19T14:38:52.632Z,21.23
2022-08-19T14:41:23.675Z,22.00
2022-08-19T14:43:54.351Z,25.20
2022-08-19T14:46:26.292Z,20.80
2022-08-19T14:48:57.122Z,22.85
2022-08-19T14:51:28.528Z,18.92
2022-08-19T14:53:56.342Z,17.73
2022-08-19T14:56:28.395Z,22.15
2022-08-19T14:58:56.203Z,18.88
2022-08-19T15:01:24.207Z,20.15
2022-08-19T15:03:55.702Z,21.45
2022-08-19T15:06:25.675Z,24.80
2022-08-19T15:08:53.748Z,25.40
2022-08-19T15:11:24.983Z,21.55
2022-08-19T15:13:52.443Z,24.33
2022-08-19T15:16:21.188Z,23.75
2022-08-19T15:18:53.126Z,24.67
2022-08-19T15:21:27.281Z,16.33
2022-08-19T15:23:58.202Z,18.38
2022-08-19T15:26:29.020Z,20.65
2022-08-19T15:28:56.969Z,16.55
2022-08-19T15:31:25.438Z,13.35
2022-08-19T15:33:59.140Z,10.18
2022-08-19T15:36:28.350Z,8.60
2022-08-19T15:38:59.001Z,7.03
2022-08-19T15:41:31.634Z,4.82
2022-08-19T15:44:04.397Z,8.50
2022-08-19T15:46:34.247Z,6.60
2022-08-19T15:49:01.784Z,21.48
2022-08-19T15:51:32.442Z,8.07
2022-08-19T15:54:00.394Z,8.55
2022-08-19T15:56:58.190Z,10.23
2022-08-19T15:59:47.517Z,11.25
2022-08-19T16:02:37.175Z,11.88
2022-08-19T16:05:27.100Z,16.80
2022-08-19T16:07:54.792Z,12.95
2022-08-19T16:10:26.459Z,14.23
2022-08-19T16:12:57.977Z,14.25
2022-08-19T16:15:30.594Z,12.63
2022-08-19T16:17:58.150Z,17.33
2022-08-19T16:20:27.740Z,17.17
2022-08-19T16:22:58.542Z,15.35
2022-08-19T16:25:29.246Z,16.92
2022-08-19T16:28:07.879Z,16.20
2022-08-19T16:30:39.370Z,16.23
2022-08-19T16:33:08.013Z,16.83
2022-08-19T16:35:35.526Z,19.20
2022-08-19T16:38:02.736Z,18.70
2022-08-19T16:40:29.975Z,17.70
2022-08-19T16:42:57.090Z,20.10
2022-08-19T16:45:24.837Z,17.85
2022-08-19T16:47:52.246Z,17.20
2022-08-19T16:50:25.356Z,17.17
2022-08-19T16:53:09.421Z,16.60
2022-08-19T16:55:37.672Z,15.38
2022-08-19T16:58:05.040Z,16.67
2022-08-19T17:00:32.103Z,17.63
2022-08-19T17:03:14.749Z,18.20
2022-08-19T17:05:44.198Z,15.13
2022-08-19T17:08:11.670Z,19.35
2022-08-19T17:10:39.879Z,15.57
2022-08-19T17:13:07.479Z,16.38
2022-08-19T17:15:34.869Z,16.83
2022-08-19T17:18:04.975Z,19.90
2022-08-19T17:20:33.827Z,21.30
2022-08-19T17:23:01.187Z,17.02
2022-08-19T17:25:31.358Z,16.58
2022-08-19T17:28:10.700Z,22.02
2022-08-19T17:30:38.804Z,18.08
2022-08-19T17:33:06.103Z,17.30
2022-08-19T17:35:33.967Z,18.27
2022-08-19T17:38:07.983Z,20.00
2022-08-19T17:40:38.598Z,16.95
2022-08-19T17:43:08.767Z,18.15
2022-08-19T17:45:38.654Z,19.75
2022-08-19T17:48:06.486Z,18.70
2022-08-19T17:50:35.212Z,20.95
2022-08-19T17:53:05.474Z,20.88
2022-08-19T17:55:34.666Z,19.17
2022-08-19T17:58:05.148Z,20.73
2022-08-19T18:00:35.867Z,21.42
2022-08-19T18:03:05.990Z,21.55
2022-08-19T18:05:42.340Z,19.65
2022-08-19T18:08:12.114Z,21.20
2022-08-19T18:10:39.272Z,23.33
2022-08-19T18:13:16.892Z,20.52
2022-08-19T18:15:44.800Z,21.48
2022-08-19T18:18:14.903Z,26.50
2022-08-19T18:20:44.648Z,27.05
2022-08-19T18:23:45.370Z,22.55
2022-08-19T18:25:59.363Z,24.77
2022-08-19T18:28:26.836Z,24.02
2022-08-19T18:30:54.071Z,22.20
2022-08-19T18:33:21.227Z,24.85
2022-08-19T18:35:52.084Z,25.05
2022-08-19T18:38:40.859Z,22.17
2022-08-19T18:41:27.644Z,26.02
2022-08-19T18:44:14.978Z,22.95
2022-08-19T18:47:00.684Z,27.40
2022-08-19T18:49:33.799Z,26.25
2022-08-19T18:52:03.562Z,25.30
2022-08-19T18:54:30.782Z,23.77
2022-08-19T18:56:58.003Z,23.67
2022-08-19T18:59:28.722Z,22.20
2022-08-19T19:01:59.565Z,26.02
2022-08-19T19:04:32.789Z,26.88
2022-08-19T19:07:00.221Z,22.67
2022-08-19T19:09:27.876Z,24.95
2022-08-19T19:12:02.670Z,24.33
2022-08-19T19:14:50.566Z,24.58
2022-08-19T19:17:18.578Z,23.90
2022-08-19T19:19:45.750Z,24.67
2022-08-19T19:22:18.179Z,23.60
2022-08-19T19:24:45.918Z,21.08
2022-08-19T19:27:18.362Z,23.73
2022-08-19T19:29:51.507Z,22.13
2022-08-19T19:32:36.944Z,22.20
2022-08-19T19:35:09.829Z,21.42
2022-08-19T19:37:37.032Z,21.00
2022-08-19T19:40:04.681Z,20.50
2022-08-19T19:42:31.709Z,22.17
2022-08-19T19:45:01.273Z,21.27
2022-08-19T19:47:30.316Z,23.13
2022-08-19T19:50:14.296Z,20.35
2022-08-19T19:52:46.055Z,19.92
2022-08-19T19:55:17.991Z,18.98
2022-08-19T19:57:50.042Z,20.40
2022-08-19T20:00:19.052Z,22.20
2022-08-19T20:02:50.102Z,20.02
2022-08-19T20:05:21.269Z,18.33
2022-08-19T20:08:09.395Z,18.80
2022-08-19T20:10:37.678Z,18.45
2022-08-19T20:13:06.698Z,21.85
2022-08-19T20:15:37.934Z,20.58
2022-08-19T20:18:07.491Z,17.50
2022-08-19T20:20:35.446Z,20.15
2022-08-19T20:23:02.604Z,17.05
2022-08-19T20:25:30.430Z,18.67
2022-08-19T20:27:57.750Z,15.77
2022-08-19T20:30:25.618Z,16.85
2022-08-19T20:32:56.436Z,25.00
2022-08-19T20:35:24.024Z,17.45
2022-08-19T20:37:57.970Z,18.05
2022-08-19T20:40:27.763Z,16.48
2022-08-19T20:42:55.422Z,15.15
2022-08-19T20:45:32.700Z,16.95
2022-08-19T20:48:03.209Z,15.32
2022-08-19T20:50:33.415Z,17.52
2022-08-19T20:53:01.693Z,15.57
2022-08-19T20:55:30.467Z,17.08
2022-08-19T20:57:58.632Z,16.73
2022-08-19T21:00:26.400Z,14.60
2022-08-19T21:02:53.496Z,16.65
2022-08-19T21:05:20.645Z,18.00
2022-08-19T21:07:47.755Z,18.17
2022-08-19T21:10:16.495Z,16.17
2022-08-19T21:12:44.393Z,18.38
2022-08-19T21:15:12.107Z,14.68
2022-08-19T21:17:39.966Z,17.20
2022-08-19T21:20:09.718Z,15.95
2022-08-19T21:22:36.803Z,17.13
2022-08-19T21:25:05.384Z,16.38
2022-08-19T21:27:32.888Z,17.77
2022-08-19T21:30:00.238Z,18.67
2022-08-19T21:32:27.346Z,17.02
2022-08-19T21:34:54.439Z,15.45
2022-08-19T21:37:25.048Z,17.63
2022-08-19T21:39:55.366Z,19.33
2022-08-19T21:42:24.058Z,19.05
2022-08-19T21:44:51.756Z,17.15
2022-08-19T21:47:19.055Z,16.85
2022-08-19T21:49:46.242Z,17.88
2022-08-19T21:52:13.612Z,18.17
2022-08-19T21:54:41.059Z,17.13
2022-08-19T21:57:10.900Z,18.33
2022-08-19T21:59:44.060Z,17.65
2022-08-19T22:02:22.120Z,18.07
2022-08-19T22:04:54.567Z,17.88
2022-08-19T22:07:22.362Z,16.48
2022-08-19T22:09:51.578Z,19.33
2022-08-19T22:12:27.191Z,18.83
2022-08-19T22:14:56.602Z,17.27
2022-08-19T22:17:26.459Z,15.80
2022-08-19T22:19:56.275Z,19.52
2022-08-19T22:22:33.002Z,18.80
2022-08-19T22:25:31.717Z,19.23
2022-08-19T22:28:02.098Z,16.67
2022-08-19T22:30:33.529Z,18.50
2022-08-19T22:33:06.386Z,20.52
2022-08-19T22:35:38.187Z,17.75
2022-08-19T22:38:08.209Z,17.73
2022-08-19T22:40:40.363Z,16.45
2022-08-19T22:43:15.125Z,15.68
2022-08-19T22:45:44.375Z,16.10
2022-08-19T22:48:15.936Z,16.90
2022-08-19T22:51:05.059Z,16.50
2022-08-19T22:53:36.339Z,16.70
2022-08-19T22:56:06.575Z,16.35
2022-08-19T22:58:34.267Z,17.50
2022-08-19T23:01:02.127Z,18.55
2022-08-19T23:03:29.351Z,17.55
2022-08-19T23:05:56.933Z,15.98
2022-08-19T23:08:24.203Z,16.88
2022-08-19T23:10:51.392Z,16.17
2022-08-19T23:13:19.009Z,20.33
2022-08-19T23:15:47.043Z,17.67
2022-08-19T23:18:14.387Z,19.77
2022-08-19T23:20:44.684Z,18.55
2022-08-19T23:23:18.763Z,18.38
2022-08-19T23:28:33.360Z,17.52
2022-08-19T23:31:02.143Z,19.77
2022-08-19T23:33:50.743Z,20.02
2022-08-19T23:36:20.943Z,20.40
2022-08-19T23:38:51.953Z,21.90
2022-08-19T23:41:23.445Z,21.85
2022-08-19T23:43:50.877Z,20.80
2022-08-19T23:46:27.546Z,18.98
2022-08-19T23:48:57.923Z,20.23
2022-08-19T23:51:26.315Z,20.92
2022-08-19T23:53:53.831Z,17.48
2022-08-19T23:56:21.414Z,20.23
2022-08-19T23:58:49.208Z,17.80
